Time;durP1;ratioP1;P1;durP2;ratioP2;P2;SDS_P1;SDS_P2;PMS_P1;PMS_P2;Temp;Humidity;BMP_temperature;BMP_pressure;BME280_temperature;BME280_humidity;BME280_pressure;Samples;Min_cycle;Max_cycle;Signal;HPM_P1;HPM_P2
2023/03/19 00:00:10;;;;;;;;;29.00;26.00;12.90;33.80;;;;;;109714;1255;46917;-76
2023/03/19 00:02:56;;;;;;;;;27.00;23.00;13.00;33.80;;;;;;109952;1255;58645;-74
2023/03/19 00:05:23;;;;;;;;;31.00;25.00;13.10;34.00;;;;;;109742;1255;53624;-76
2023/03/19 00:07:49;;;;;;;;;29.50;24.50;13.20;33.90;;;;;;109767;1255;49692;-75
2023/03/19 00:10:15;;;;;;;;;22.00;21.00;13.20;33.50;;;;;;109786;1255;48995;-75
2023/03/19 00:12:41;;;;;;;;;24.00;22.00;13.30;33.70;;;;;;109930;1255;46437;-75
2023/03/19 00:15:12;;;;;;;;;26.00;22.00;13.40;33.60;;;;;;109743;1255;56399;-75
2023/03/19 00:17:40;;;;;;;;;26.00;23.00;13.40;33.70;;;;;;109772;1260;53653;-77
2023/03/19 00:20:08;;;;;;;;;23.00;21.50;13.50;33.50;;;;;;109720;1255;50263;-77
2023/03/19 00:22:34;;;;;;;;;22.50;20.00;13.50;33.70;;;;;;110033;1260;49952;-76
2023/03/19 00:25:00;;;;;;;;;28.00;24.00;13.50;33.40;;;;;;109778;1260;46523;-77
2023/03/19 00:27:27;;;;;;;;;22.00;19.00;13.60;33.70;;;;;;109781;1255;57828;-74
2023/03/19 00:29:53;;;;;;;;;24.00;22.00;13.70;33.40;;;;;;109733;1255;53676;-74
2023/03/19 00:32:20;;;;;;;;;22.00;21.00;13.70;33.60;;;;;;109968;1257;50496;-75
2023/03/19 00:34:46;;;;;;;;;23.00;21.00;13.80;33.50;;;;;;109727;1259;49035;-74
2023/03/19 00:37:12;;;;;;;;;26.50;24.50;13.80;33.40;;;;;;109823;1255;46779;-75
2023/03/19 00:39:38;;;;;;;;;22.00;21.00;13.80;33.60;;;;;;109748;1258;56974;-75
2023/03/19 00:42:05;;;;;;;;;21.00;19.50;13.90;33.40;;;;;;110148;1255;54073;-76
2023/03/19 00:44:32;;;;;;;;;25.00;21.00;13.90;33.70;;;;;;109835;1259;49145;-76
2023/03/19 00:46:58;;;;;;;;;22.00;19.00;14.00;33.40;;;;;;109793;1255;50538;-76
2023/03/19 00:49:24;;;;;;;;;24.00;17.00;14.00;33.40;;;;;;109755;1259;46197;-76
2023/03/19 00:51:50;;;;;;;;;21.00;19.00;14.10;33.50;;;;;;110032;1259;56986;-76
2023/03/19 00:54:17;;;;;;;;;20.00;18.00;14.10;33.40;;;;;;109746;1260;54071;-77
2023/03/19 00:56:43;;;;;;;;;23.00;18.00;14.20;33.40;;;;;;109756;1256;50728;-76
2023/03/19 00:59:09;;;;;;;;;23.00;20.00;14.20;33.40;;;;;;109747;1255;49890;-76
2023/03/19 01:01:36;;;;;;;;;20.00;18.50;14.20;33.40;;;;;;110156;1259;46099;-74
2023/03/19 01:04:03;;;;;;;;;20.00;19.00;14.30;33.40;;;;;;109882;1255;56874;-75
2023/03/19 01:06:29;;;;;;;;;19.00;15.00;14.30;33.40;;;;;;109829;1259;54707;-74
2023/03/19 01:08:55;;;;;;;;;20.00;17.00;14.30;33.40;;;;;;109712;1255;49464;-74
2023/03/19 01:11:21;;;;;;;;;18.00;16.00;14.40;33.50;;;;;;109960;1259;49506;-74
2023/03/19 01:13:48;;;;;;;;;22.00;17.50;14.40;33.70;;;;;;109776;1255;46066;-73
2023/03/19 01:16:14;;;;;;;;;20.00;17.00;14.50;33.50;;;;;;109693;1260;57743;-73
2023/03/19 01:18:40;;;;;;;;;25.00;19.50;14.50;33.50;;;;;;109741;1255;53674;-75
2023/03/19 01:21:07;;;;;;;;;19.00;17.00;14.50;33.60;;;;;;109927;1257;49466;-73
2023/03/19 01:23:33;;;;;;;;;21.00;18.00;14.50;33.40;;;;;;109908;1256;49166;-74
2023/03/19 01:25:59;;;;;;;;;21.00;17.50;14.60;33.50;;;;;;109999;1255;46344;-74
2023/03/19 01:28:26;;;;;;;;;17.00;16.00;14.60;33.50;;;;;;109938;1255;57716;-74
2023/03/19 01:30:52;;;;;;;;;24.50;20.00;14.70;33.50;;;;;;109962;1257;53738;-75
2023/03/19 01:33:19;;;;;;;;;24.00;21.00;14.70;33.50;;;;;;109964;1255;49407;-74
2023/03/19 01:35:49;;;;;;;;;20.00;19.00;14.70;33.50;;;;;;109877;1259;49233;-75
2023/03/19 01:38:16;;;;;;;;;24.00;18.00;14.70;33.50;;;;;;109911;1256;46667;-74
2023/03/19 01:40:44;;;;;;;;;18.00;16.00;14.80;33.50;;;;;;109742;1257;58607;-74
2023/03/19 01:43:16;;;;;;;;;19.00;16.00;14.80;33.50;;;;;;110049;1259;54916;-75
2023/03/19 01:45:43;;;;;;;;;22.00;19.00;14.80;33.50;;;;;;109872;1255;49901;-73
2023/03/19 01:48:35;;;;;;;;;21.00;20.00;14.90;33.50;;;;;;109796;1260;50483;-75
2023/03/19 01:51:01;;;;;;;;;21.00;18.00;14.90;33.40;;;;;;109944;1255;46806;-75
2023/03/19 01:53:31;;;;;;;;;18.00;17.00;14.90;33.40;;;;;;109896;1259;56198;-75
2023/03/19 01:56:11;;;;;;;;;19.50;16.00;15.00;33.70;;;;;;109846;1260;53989;-75
2023/03/19 01:58:39;;;;;;;;;22.33;17.00;15.00;33.40;;;;;;109630;1258;50360;-75
2023/03/19 02:01:05;;;;;;;;;21.50;17.50;15.00;33.40;;;;;;110008;1255;49102;-76
2023/03/19 02:03:33;;;;;;;;;19.00;17.00;15.00;33.40;;;;;;109879;1259;46573;-76
2023/03/19 02:05:59;;;;;;;;;17.33;16.00;15.00;33.40;;;;;;109718;1258;56915;-76
2023/03/19 02:08:27;;;;;;;;;19.00;18.00;15.10;33.50;;;;;;109692;1261;54465;-74
2023/03/19 02:10:54;;;;;;;;;18.00;16.00;15.10;33.40;;;;;;109563;1261;50835;-75
2023/03/19 02:13:22;;;;;;;;;20.00;19.00;15.10;33.40;;;;;;109916;1261;49914;-76
2023/03/19 02:15:49;;;;;;;;;24.00;20.00;15.10;33.40;;;;;;109701;1255;46388;-75
2023/03/19 02:18:16;;;;;;;;;18.00;17.00;15.10;33.60;;;;;;109715;1260;56787;-75
2023/03/19 02:21:13;;;;;;;;;18.50;17.50;15.10;33.40;;;;;;109696;1257;53823;-76
2023/03/19 02:23:45;;;;;;;;;;;15.10;33.60;;;;;;109728;1256;50506;-75
2023/03/19 02:26:14;;;;;;;;;17.00;16.00;15.20;33.50;;;;;;109724;1260;49138;-76
2023/03/19 02:28:42;;;;;;;;;20.00;17.00;15.20;33.40;;;;;;109759;1258;45928;-77
2023/03/19 02:31:10;;;;;;;;;17.00;15.50;15.20;33.50;;;;;;110091;1255;57059;-73
2023/03/19 02:33:36;;;;;;;;;21.00;17.00;15.20;33.40;;;;;;109858;1259;53543;-75
2023/03/19 02:36:06;;;;;;;;;15.50;14.00;15.20;33.60;;;;;;109858;1260;49229;-75
2023/03/19 02:38:33;;;;;;;;;18.00;15.50;15.30;33.40;;;;;;109904;1256;49108;-75
2023/03/19 02:41:03;;;;;;;;;17.00;16.00;15.30;33.40;;;;;;110035;1255;45824;-74
2023/03/19 02:43:31;;;;;;;;;20.00;18.00;15.30;33.40;;;;;;109906;1259;56557;-75
2023/03/19 02:45:59;;;;;;;;;17.00;15.00;15.30;33.40;;;;;;109708;1258;54255;-74
2023/03/19 02:48:25;;;;;;;;;16.00;15.00;15.30;32.90;;;;;;109880;1259;49443;-75
2023/03/19 02:50:51;;;;;;;;;19.00;16.00;15.30;33.30;;;;;;109814;1255;50017;-73
2023/03/19 02:53:18;;;;;;;;;17.00;16.00;15.30;33.40;;;;;;110176;1255;46391;-73
2023/03/19 02:55:44;;;;;;;;;17.50;16.00;15.30;33.30;;;;;;109944;1260;57041;-72
2023/03/19 02:58:11;;;;;;;;;20.00;19.00;15.40;33.60;;;;;;109724;1255;53792;-73
2023/03/19 03:00:37;;;;;;;;;17.00;14.00;15.40;33.60;;;;;;109700;1259;49821;-72
2023/03/19 03:03:04;;;;;;;;;;;15.40;33.40;;;;;;110159;1255;49840;-72
2023/03/19 03:05:30;;;;;;;;;16.50;15.00;15.40;33.70;;;;;;109681;1257;46661;-73
2023/03/19 03:07:57;;;;;;;;;16.00;14.00;15.40;33.40;;;;;;109709;1257;56451;-73
2023/03/19 03:10:24;;;;;;;;;15.50;14.00;15.40;33.40;;;;;;109807;1255;54469;-74
2023/03/19 03:12:50;;;;;;;;;17.00;15.00;15.40;33.40;;;;;;110058;1259;49395;-73
2023/03/19 03:15:17;;;;;;;;;17.00;16.00;15.40;33.50;;;;;;109694;1260;49106;-72
2023/03/19 03:17:44;;;;;;;;;17.50;16.00;15.40;33.40;;;;;;109693;1257;46272;-74
2023/03/19 03:20:13;;;;;;;;;18.00;16.00;15.40;33.40;;;;;;109729;1257;57713;-72
2023/03/19 03:22:40;;;;;;;;;20.50;17.00;15.40;33.50;;;;;;110044;1260;54718;-74
2023/03/19 03:25:08;;;;;;;;;21.00;17.00;15.40;33.50;;;;;;109731;1259;49540;-75
2023/03/19 03:27:35;;;;;;;;;17.00;16.00;15.40;34.00;;;;;;109727;1260;49133;-73
2023/03/19 03:30:03;;;;;;;;;;;15.40;34.00;;;;;;109736;1257;47464;-74
2023/03/19 03:32:29;;;;;;;;;18.50;16.50;15.40;33.40;;;;;;110115;1260;57133;-76
2023/03/19 03:34:55;;;;;;;;;19.00;17.00;15.40;33.50;;;;;;109778;1255;54064;-74
2023/03/19 03:37:22;;;;;;;;;18.00;17.00;15.50;33.50;;;;;;109742;1256;49314;-76
2023/03/19 03:39:48;;;;;;;;;18.00;16.50;15.50;33.50;;;;;;109738;1260;49296;-76
2023/03/19 03:42:14;;;;;;;;;17.50;15.00;15.50;33.60;;;;;;110086;1255;45820;-77
2023/03/19 03:44:41;;;;;;;;;18.00;17.00;15.50;33.60;;;;;;109730;1255;56889;-76
2023/03/19 03:47:07;;;;;;;;;18.00;17.00;15.50;33.60;;;;;;109735;1256;53923;-74
2023/03/19 03:49:34;;;;;;;;;18.33;15.00;15.50;33.60;;;;;;109874;1259;49499;-71
2023/03/19 03:52:00;;;;;;;;;20.50;18.00;15.50;33.60;;;;;;110131;1255;50342;-71
2023/03/19 03:54:26;;;;;;;;;16.00;15.00;15.50;33.60;;;;;;109726;1260;45865;-73
2023/03/19 03:56:52;;;;;;;;;16.00;15.00;15.50;33.60;;;;;;109704;1255;55864;-69
2023/03/19 03:59:19;;;;;;;;;16.50;15.00;15.50;33.80;;;;;;109721;1260;54010;-72
2023/03/19 04:01:45;;;;;;;;;19.00;17.00;15.50;33.60;;;;;;110183;1255;49173;-75
2023/03/19 04:04:11;;;;;;;;;16.00;15.00;15.50;33.70;;;;;;109813;1260;49497;-73
2023/03/19 04:06:38;;;;;;;;;17.00;16.00;15.50;33.60;;;;;;109704;1257;47673;-75
2023/03/19 04:09:04;;;;;;;;;18.50;16.00;15.50;33.60;;;;;;109806;1259;57056;-74
2023/03/19 04:11:30;;;;;;;;;15.00;14.00;15.50;33.60;;;;;;110307;1257;53884;-74
2023/03/19 04:13:56;;;;;;;;;15.00;13.50;15.50;33.60;;;;;;109897;1255;50561;-76
2023/03/19 04:16:23;;;;;;;;;18.00;16.00;15.60;33.70;;;;;;109638;1258;49967;-74
2023/03/19 04:18:49;;;;;;;;;19.00;16.00;15.60;33.60;;;;;;109792;1257;46667;-75
2023/03/19 04:21:15;;;;;;;;;14.00;12.00;15.60;33.70;;;;;;110117;1259;56832;-79
2023/03/19 04:23:42;;;;;;;;;21.00;15.00;15.50;33.70;;;;;;109861;1259;53674;-81
2023/03/19 04:26:09;;;;;;;;;23.50;18.50;15.50;33.70;;;;;;109748;1255;49622;-76
2023/03/19 04:28:36;;;;;;;;;21.00;17.00;15.60;43.50;;;;;;109795;1255;50010;-77
2023/03/19 04:31:04;;;;;;;;;19.00;16.00;15.70;42.40;;;;;;109905;1255;46012;-74
2023/03/19 04:33:31;;;;;;;;;17.00;16.00;15.80;41.70;;;;;;109873;1257;56419;-74
2023/03/19 04:35:58;;;;;;;;;18.00;17.00;15.90;40.70;;;;;;109931;1255;53268;-80
2023/03/19 04:38:25;;;;;;;;;18.67;17.00;15.90;39.70;;;;;;109819;1261;49674;-81
2023/03/19 04:40:52;;;;;;;;;16.00;14.67;15.90;39.20;;;;;;109789;1255;49640;-81
2023/03/19 04:43:18;;;;;;;;;16.00;15.00;15.90;38.90;;;;;;109967;1259;46704;-81
2023/03/19 04:45:44;;;;;;;;;16.50;14.50;15.90;38.60;;;;;;109782;1256;56511;-76
2023/03/19 04:48:11;;;;;;;;;17.00;14.00;16.00;38.40;;;;;;109907;1260;53684;-75
2023/03/19 04:50:38;;;;;;;;;17.25;15.00;15.90;37.90;;;;;;109774;1255;48981;-76
2023/03/19 04:53:04;;;;;;;;;21.00;17.00;15.90;37.70;;;;;;110079;1260;49169;-76
2023/03/19 04:55:31;;;;;;;;;17.00;16.00;15.90;37.60;;;;;;109858;1255;46021;-68
2023/03/19 04:57:57;;;;;;;;;18.00;16.50;15.90;37.30;;;;;;109649;1257;56417;-70
2023/03/19 05:00:23;;;;;;;;;20.00;15.50;15.90;42.30;;;;;;109672;1259;54329;-73
2023/03/19 05:02:50;;;;;;;;;15.50;14.50;16.00;42.10;;;;;;110050;1259;49822;-73
2023/03/19 05:05:16;;;;;;;;;19.00;15.00;16.10;41.90;;;;;;109747;1260;50343;-75
2023/03/19 05:07:43;;;;;;;;;18.00;17.00;16.20;41.40;;;;;;109745;1255;46119;-76
2023/03/19 05:10:10;;;;;;;;;20.00;17.00;16.20;40.60;;;;;;109776;1257;57540;-74
2023/03/19 05:12:36;;;;;;;;;18.00;16.00;16.20;40.00;;;;;;110121;1255;53989;-74
2023/03/19 05:15:04;;;;;;;;;19.50;15.00;16.30;39.90;;;;;;109878;1257;50585;-76
2023/03/19 05:17:31;;;;;;;;;17.00;16.00;16.30;39.50;;;;;;109927;1255;49212;-75
2023/03/19 05:19:58;;;;;;;;;22.00;17.00;16.30;39.40;;;;;;109877;1259;46582;-75
2023/03/19 05:22:25;;;;;;;;;18.00;16.00;16.30;39.00;;;;;;109493;1255;57184;-75
2023/03/19 05:24:51;;;;;;;;;19.50;17.00;16.20;38.70;;;;;;109838;1259;54169;-75
2023/03/19 05:27:17;;;;;;;;;19.00;16.00;16.30;38.80;;;;;;109898;1260;49793;-75
2023/03/19 05:29:43;;;;;;;;;16.00;15.00;16.30;38.40;;;;;;109795;1255;48976;-75
2023/03/19 05:32:11;;;;;;;;;18.00;15.00;16.20;38.10;;;;;;110099;1256;46124;-76
2023/03/19 05:34:37;;;;;;;;;18.00;15.00;16.30;38.00;;;;;;109703;1255;56515;-71
2023/03/19 05:37:03;;;;;;;;;19.00;15.00;16.30;37.80;;;;;;109734;1257;54782;-72
2023/03/19 05:39:30;;;;;;;;;16.00;15.00;16.30;37.60;;;;;;110021;1255;49578;-72
2023/03/19 05:41:56;;;;;;;;;17.00;16.00;16.30;37.50;;;;;;110152;1259;49393;-71
2023/03/19 05:44:22;;;;;;;;;21.00;16.00;16.20;37.30;;;;;;109808;1260;46780;-72
2023/03/19 05:46:48;;;;;;;;;18.00;16.00;16.30;37.60;;;;;;109787;1255;56147;-71
2023/03/19 05:49:15;;;;;;;;;17.00;15.00;16.30;37.30;;;;;;109656;1255;54095;-71
2023/03/19 05:51:41;;;;;;;;;17.00;15.00;16.30;37.20;;;;;;109664;1260;49635;-71
2023/03/19 05:54:07;;;;;;;;;20.50;16.50;16.30;37.10;;;;;;109659;1261;50655;-72
2023/03/19 05:56:33;;;;;;;;;16.00;15.00;16.20;37.20;;;;;;109676;1261;47408;-70
2023/03/19 05:59:00;;;;;;;;;15.50;14.50;16.30;38.70;;;;;;109787;1260;57451;-70
2023/03/19 06:01:26;;;;;;;;;18.50;16.50;16.30;38.20;;;;;;109778;1261;53935;-70
2023/03/19 06:03:52;;;;;;;;;14.33;12.67;16.30;37.80;;;;;;109621;1259;50798;-70
2023/03/19 06:06:18;;;;;;;;;14.00;13.00;16.30;37.60;;;;;;109602;1259;49749;-71
2023/03/19 06:08:45;;;;;;;;;19.00;16.00;16.30;37.70;;;;;;109672;1254;46203;-72
2023/03/19 06:11:12;;;;;;;;;14.00;13.00;16.30;37.80;;;;;;110031;1260;56719;-76
2023/03/19 06:13:38;;;;;;;;;14.50;13.00;16.20;37.10;;;;;;109641;1255;54072;-78
2023/03/19 06:16:05;;;;;;;;;16.00;14.00;16.30;37.10;;;;;;109578;1259;50506;-77
2023/03/19 06:18:32;;;;;;;;;14.50;13.50;16.30;36.90;;;;;;109627;1255;49229;-77
2023/03/19 06:20:58;;;;;;;;;17.50;16.00;16.30;37.00;;;;;;109578;1255;46902;-77
2023/03/19 06:23:25;;;;;;;;;16.33;15.00;16.30;36.70;;;;;;109628;1259;57127;-77
2023/03/19 06:25:51;;;;;;;;;19.00;17.00;16.30;36.70;;;;;;109661;1255;54397;-76
2023/03/19 06:28:17;;;;;;;;;17.00;16.00;16.40;36.80;;;;;;109645;1259;49603;-77
2023/03/19 06:30:44;;;;;;;;;19.00;16.00;16.40;36.50;;;;;;109700;1260;49367;-76
2023/03/19 06:33:10;;;;;;;;;16.00;13.50;16.30;36.50;;;;;;109698;1255;47086;-76
2023/03/19 06:35:37;;;;;;;;;16.00;14.00;16.40;36.40;;;;;;109797;1260;57096;-65
2023/03/19 06:38:03;;;;;;;;;18.00;17.00;16.40;40.30;;;;;;109746;1260;53978;-66
2023/03/19 06:40:29;;;;;;;;;25.00;19.50;16.50;44.70;;;;;;109587;1255;49666;-66
2023/03/19 06:42:56;;;;;;;;;19.00;18.00;16.80;45.50;;;;;;109654;1255;49175;-66
2023/03/19 06:45:22;;;;;;;;;19.00;17.00;17.00;44.90;;;;;;109768;1254;46758;-65
2023/03/19 06:47:49;;;;;;;;;20.00;18.00;17.30;44.60;;;;;;109768;1255;57396;-65
2023/03/19 06:50:16;;;;;;;;;20.00;17.50;17.60;43.90;;;;;;109638;1259;53344;-65
2023/03/19 06:52:43;;;;;;;;;21.00;20.00;17.80;44.20;;;;;;109764;1255;50049;-65
2023/03/19 06:55:11;;;;;;;;;16.00;14.00;18.00;44.10;;;;;;109685;1259;49479;-64
2023/03/19 06:57:37;;;;;;;;;18.00;15.00;18.20;44.10;;;;;;109670;1260;46393;-66
2023/03/19 07:00:05;;;;;;;;;22.00;21.00;18.40;44.30;;;;;;109713;1255;56434;-66
2023/03/19 07:02:32;;;;;;;;;22.00;20.00;18.50;43.70;;;;;;109767;1257;54659;-65
2023/03/19 07:04:58;;;;;;;;;21.00;19.00;18.70;43.30;;;;;;109721;1259;49347;-65
2023/03/19 07:07:24;;;;;;;;;22.00;19.00;18.90;43.30;;;;;;108936;1255;828845;-64
2023/03/19 07:09:51;;;;;;;;;26.50;21.00;19.00;42.60;;;;;;109668;1255;37782;-66
2023/03/19 07:12:17;;;;;;;;;24.00;19.00;19.00;42.20;;;;;;110039;1257;56695;-65
2023/03/19 07:14:43;;;;;;;;;20.00;17.00;19.00;41.90;;;;;;109626;1259;55087;-63
2023/03/19 07:17:10;;;;;;;;;20.00;18.00;19.00;41.40;;;;;;109629;1255;50537;-64
2023/03/19 07:19:36;;;;;;;;;20.00;18.00;18.90;41.20;;;;;;109673;1259;49081;-65
2023/03/19 07:22:02;;;;;;;;;23.50;19.50;18.90;40.90;;;;;;109668;1255;47450;-64
2023/03/19 07:24:29;;;;;;;;;19.75;18.25;18.90;40.90;;;;;;109632;1259;56640;-65
2023/03/19 07:26:56;;;;;;;;;22.00;19.00;18.90;40.50;;;;;;109584;1255;53477;-69
2023/03/19 07:29:22;;;;;;;;;21.00;18.00;18.90;40.30;;;;;;109851;1255;49129;-65
2023/03/19 07:31:48;;;;;;;;;21.00;18.00;18.80;40.20;;;;;;109858;1255;49449;-65
2023/03/19 07:34:15;;;;;;;;;21.00;17.00;18.80;40.00;;;;;;109726;1255;45222;-64
2023/03/19 07:36:41;;;;;;;;;22.00;19.00;18.90;40.10;;;;;;109601;1255;57738;-65
2023/03/19 07:39:07;;;;;;;;;20.00;19.00;18.80;39.50;;;;;;109583;1259;54079;-65
2023/03/19 07:41:34;;;;;;;;;19.50;16.50;18.80;39.60;;;;;;109633;1259;50015;-62
2023/03/19 07:44:00;;;;;;;;;22.50;20.50;18.90;39.40;;;;;;109657;1255;49854;-68
2023/03/19 07:46:27;;;;;;;;;21.00;17.67;18.90;39.40;;;;;;109630;1255;46959;-65
2023/03/19 07:48:53;;;;;;;;;29.50;21.00;18.90;39.40;;;;;;109546;1261;57664;-65
2023/03/19 07:51:20;;;;;;;;;32.00;23.00;18.90;39.40;;;;;;109623;1256;55133;-66
2023/03/19 07:53:47;;;;;;;;;26.00;25.00;18.90;39.30;;;;;;109690;1260;49698;-65
2023/03/19 07:56:13;;;;;;;;;26.00;21.50;19.00;39.20;;;;;;109648;1255;49401;-65
2023/03/19 07:58:39;;;;;;;;;29.50;22.00;19.10;39.30;;;;;;109580;1257;46670;-72
2023/03/19 08:01:06;;;;;;;;;27.00;23.00;19.10;39.00;;;;;;109616;1259;56462;-66
2023/03/19 08:03:32;;;;;;;;;23.50;22.00;19.10;38.80;;;;;;109580;1255;54821;-68
2023/03/19 08:05:58;;;;;;;;;32.00;25.00;19.20;38.70;;;;;;109630;1255;48985;-67
2023/03/19 08:08:25;;;;;;;;;27.67;25.67;19.20;38.50;;;;;;109697;1255;50471;-67
2023/03/19 08:10:54;;;;;;;;;33.00;25.00;19.20;38.40;;;;;;109558;1257;46345;-66
2023/03/19 08:13:21;;;;;;;;;26.00;21.00;19.30;38.30;;;;;;109704;1259;57425;-64
2023/03/19 08:15:52;;;;;;;;;26.00;21.50;19.30;38.20;;;;;;109783;1261;54204;-66
2023/03/19 08:18:19;;;;;;;;;27.00;23.00;19.40;38.20;;;;;;109661;1257;48951;-66
2023/03/19 08:20:45;;;;;;;;;27.00;22.00;19.40;38.20;;;;;;109701;1258;49133;-65
2023/03/19 08:23:12;;;;;;;;;28.00;21.50;19.40;37.90;;;;;;109658;1254;46234;-65
2023/03/19 08:25:38;;;;;;;;;24.50;21.00;19.50;38.00;;;;;;109649;1255;56123;-66
2023/03/19 08:28:06;;;;;;;;;25.00;21.00;19.50;37.70;;;;;;109584;1256;53319;-66
2023/03/19 08:30:32;;;;;;;;;24.50;21.50;19.60;37.60;;;;;;109678;1255;49690;-65
2023/03/19 08:32:58;;;;;;;;;22.00;19.00;19.60;37.50;;;;;;109731;1257;49733;-65
2023/03/19 08:35:27;;;;;;;;;21.00;17.00;19.70;37.50;;;;;;109604;1258;46392;-65
2023/03/19 08:37:54;;;;;;;;;22.00;19.00;19.70;37.30;;;;;;109745;1255;56087;-65
2023/03/19 08:40:21;;;;;;;;;30.00;20.00;19.80;37.30;;;;;;109632;1260;55111;-65
2023/03/19 08:42:47;;;;;;;;;22.00;19.50;19.80;37.20;;;;;;109656;1260;50318;-65
2023/03/19 08:45:15;;;;;;;;;24.00;18.67;19.90;37.20;;;;;;109502;1257;50091;-65
2023/03/19 08:47:41;;;;;;;;;30.00;25.00;20.00;37.30;;;;;;109744;1259;46582;-65
2023/03/19 08:50:09;;;;;;;;;26.00;20.00;20.00;37.00;;;;;;109683;1255;57149;-65
2023/03/19 08:52:35;;;;;;;;;22.50;18.00;20.00;36.90;;;;;;109666;1255;53775;-65
2023/03/19 08:55:02;;;;;;;;;21.00;17.00;20.10;37.40;;;;;;109576;1258;50351;-65
2023/03/19 08:57:30;;;;;;;;;23.00;20.00;20.20;36.80;;;;;;109559;1260;49032;-65
2023/03/19 08:59:56;;;;;;;;;;;20.20;36.70;;;;;;109588;1259;46826;-65
2023/03/19 09:02:22;;;;;;;;;22.00;19.00;20.30;36.70;;;;;;109689;1255;56595;-65
2023/03/19 09:04:49;;;;;;;;;21.00;19.00;20.40;36.70;;;;;;109689;1256;53561;-66
2023/03/19 09:07:15;;;;;;;;;22.00;20.00;20.40;36.60;;;;;;109597;1257;49172;-65
2023/03/19 09:09:42;;;;;;;;;24.25;21.50;20.50;36.60;;;;;;109600;1259;49674;-64
2023/03/19 09:12:11;;;;;;;;;23.00;20.00;20.50;36.70;;;;;;109616;1256;46312;-64
2023/03/19 09:14:38;;;;;;;;;22.00;18.00;20.60;36.70;;;;;;109638;1260;56237;-65
2023/03/19 09:17:05;;;;;;;;;20.00;18.00;20.70;36.70;;;;;;109551;1255;54274;-65
2023/03/19 09:19:32;;;;;;;;;29.00;22.00;20.70;36.30;;;;;;109584;1259;49351;-66
2023/03/19 09:21:59;;;;;;;;;23.00;20.50;20.70;36.40;;;;;;109605;1260;49092;-66
2023/03/19 09:24:25;;;;;;;;;21.00;18.25;20.80;36.30;;;;;;109777;1258;45847;-67
2023/03/19 09:26:52;;;;;;;;;21.50;19.00;20.90;36.20;;;;;;109607;1259;56893;-65
2023/03/19 09:29:18;;;;;;;;;21.33;18.00;20.90;36.10;;;;;;109612;1259;54302;-64
2023/03/19 09:31:45;;;;;;;;;24.00;18.00;21.00;36.10;;;;;;109668;1259;49750;-64
2023/03/19 09:34:12;;;;;;;;;22.00;19.00;21.00;36.10;;;;;;109715;1257;49277;-64
2023/03/19 09:36:39;;;;;;;;;20.00;19.00;21.10;36.10;;;;;;109865;1259;46378;-64
2023/03/19 09:39:06;;;;;;;;;19.50;18.00;21.20;36.00;;;;;;109585;1256;56004;-64
2023/03/19 09:42:11;;;;;;;;;25.00;17.00;21.20;36.10;;;;;;109587;1255;54213;-64
2023/03/19 09:44:43;;;;;;;;;21.00;18.00;21.30;36.00;;;;;;109612;1259;49114;-64
2023/03/19 09:47:22;;;;;;;;;24.00;20.00;21.40;35.90;;;;;;109569;1257;50153;-65
2023/03/19 09:49:49;;;;;;;;;21.00;18.00;21.40;35.80;;;;;;109705;1258;46036;-64
2023/03/19 09:52:35;;;;;;;;;24.00;16.50;21.50;35.80;;;;;;109297;1258;56724;-65
2023/03/19 09:55:22;;;;;;;;;24.50;18.00;21.60;36.10;;;;;;109753;1260;54004;-65
2023/03/19 09:57:50;;;;;;;;;20.00;17.50;21.60;35.60;;;;;;109787;1260;49446;-65
2023/03/19 10:00:21;;;;;;;;;19.00;18.00;21.70;35.70;;;;;;109756;1260;48962;-65
2023/03/19 10:02:53;;;;;;;;;18.50;16.00;21.80;36.00;;;;;;109493;1260;46441;-65
2023/03/19 10:05:23;;;;;;;;;21.00;20.00;21.80;35.80;;;;;;109749;1264;56685;-66
2023/03/19 10:08:02;;;;;;;;;17.00;16.00;21.90;35.70;;;;;;109892;1260;54364;-66
2023/03/19 10:11:01;;;;;;;;;20.00;18.00;21.90;35.60;;;;;;109888;1260;49167;-67
2023/03/19 10:13:46;;;;;;;;;;;22.00;35.60;;;;;;109715;1255;49699;-65
2023/03/19 10:16:18;;;;;;;;;22.50;18.00;22.10;35.60;;;;;;109687;1257;46610;-65
2023/03/19 10:18:48;;;;;;;;;22.00;19.00;22.20;35.50;;;;;;109635;1255;57078;-65
2023/03/19 10:21:52;;;;;;;;;21.00;18.00;22.20;35.60;;;;;;109444;1261;53425;-65
2023/03/19 10:24:30;;;;;;;;;18.00;16.00;22.20;35.50;;;;;;109510;1255;49393;-64
2023/03/19 10:27:20;;;;;;;;;17.00;13.00;22.40;35.60;;;;;;109638;1259;50011;-65
2023/03/19 10:29:46;;;;;;;;;24.00;21.00;22.50;35.30;;;;;;109574;1255;46424;-64
2023/03/19 10:32:28;;;;;;;;;19.00;16.33;22.50;35.20;;;;;;109432;1260;56487;-64
2023/03/19 10:34:58;;;;;;;;;22.00;17.00;22.60;35.20;;;;;;109547;1260;54644;-64
2023/03/19 10:37:27;;;;;;;;;18.00;14.00;22.70;35.20;;;;;;109354;1261;48967;-64
2023/03/19 10:39:58;;;;;;;;;16.33;14.67;22.70;35.10;;;;;;109684;1257;49994;-65
2023/03/19 10:42:43;;;;;;;;;21.50;17.50;22.70;35.10;;;;;;109676;1257;46186;-65
2023/03/19 10:45:29;;;;;;;;;17.00;15.50;22.70;35.20;;;;;;109600;1260;56434;-65
2023/03/19 10:47:56;;;;;;;;;16.00;15.00;22.80;35.00;;;;;;109590;1258;54684;-65
2023/03/19 10:50:33;;;;;;;;;17.50;15.00;22.80;35.00;;;;;;109586;1256;49509;-65
2023/03/19 10:53:02;;;;;;;;;17.50;15.50;22.80;34.90;;;;;;109610;1257;49996;-66
2023/03/19 10:55:29;;;;;;;;;;;22.90;35.00;;;;;;109662;1255;46689;-64
2023/03/19 10:58:05;;;;;;;;;17.00;15.00;23.00;35.20;;;;;;109583;1255;56821;-64
2023/03/19 11:00:34;;;;;;;;;15.00;14.00;23.00;35.10;;;;;;109592;1259;55005;-65
2023/03/19 11:03:03;;;;;;;;;17.50;16.50;23.00;34.90;;;;;;109690;1257;49350;-65
2023/03/19 11:05:32;;;;;;;;;18.00;14.00;23.10;35.10;;;;;;109662;1255;50851;-65
2023/03/19 11:08:03;;;;;;;;;19.00;14.00;23.10;34.80;;;;;;109619;1260;46416;-65
2023/03/19 11:10:32;;;;;;;;;18.50;17.00;23.20;35.00;;;;;;109621;1259;57179;-64
2023/03/19 11:13:06;;;;;;;;;18.00;16.00;23.20;34.80;;;;;;109805;1258;54107;-65
2023/03/19 11:15:36;;;;;;;;;19.50;15.00;23.30;35.10;;;;;;109642;1260;49265;-65
2023/03/19 11:18:28;;;;;;;;;22.50;15.00;23.30;34.70;;;;;;109637;1259;49715;-65
2023/03/19 11:20:57;;;;;;;;;18.00;14.00;23.30;34.30;;;;;;109617;1260;46770;-65
2023/03/19 11:23:26;;;;;;;;;15.67;14.00;23.30;34.60;;;;;;109551;1259;57126;-61
2023/03/19 11:25:54;;;;;;;;;16.00;15.00;23.40;35.20;;;;;;109670;1255;53515;-61
2023/03/19 11:28:23;;;;;;;;;18.00;13.00;23.40;34.80;;;;;;109632;1259;49661;-61
2023/03/19 11:31:18;;;;;;;;;19.00;18.00;23.40;34.70;;;;;;109669;1260;50049;-61
2023/03/19 11:34:08;;;;;;;;;18.00;16.00;23.50;34.80;;;;;;109649;1255;46107;-61
2023/03/19 11:36:37;;;;;;;;;18.00;15.00;23.50;34.80;;;;;;109610;1259;56698;-62
2023/03/19 11:39:24;;;;;;;;;19.00;16.00;23.50;34.70;;;;;;109594;1255;54343;-61
2023/03/19 11:42:09;;;;;;;;;20.00;18.00;23.60;34.80;;;;;;109700;1259;49847;-62
2023/03/19 11:44:39;;;;;;;;;20.50;18.50;23.60;34.80;;;;;;109845;1260;49833;-67
2023/03/19 11:47:15;;;;;;;;;22.00;19.00;23.60;35.00;;;;;;109973;1255;46556;-67
2023/03/19 11:49:57;;;;;;;;;19.00;17.50;23.60;35.40;;;;;;109935;1255;56597;-67
2023/03/19 11:52:50;;;;;;;;;22.00;18.00;23.60;35.60;;;;;;110204;1260;53826;-68
2023/03/19 11:55:38;;;;;;;;;20.00;18.50;23.70;35.70;;;;;;109932;1255;49217;-66
2023/03/19 11:58:30;;;;;;;;;22.00;19.00;23.80;35.70;;;;;;109749;1260;49866;-65
2023/03/19 12:00:56;;;;;;;;;18.50;17.00;23.80;35.60;;;;;;109656;1259;47003;-66
2023/03/19 12:03:44;;;;;;;;;20.00;18.00;23.90;36.00;;;;;;109713;1257;57281;-69
2023/03/19 12:06:40;;;;;;;;;21.00;19.50;24.00;36.10;;;;;;109902;1260;55014;-67
2023/03/19 12:09:28;;;;;;;;;18.00;16.00;24.00;36.10;;;;;;109612;1257;49060;-64
2023/03/19 12:12:09;;;;;;;;;20.00;18.00;24.00;36.20;;;;;;110118;1255;49095;-65
2023/03/19 12:14:41;;;;;;;;;19.00;16.00;24.00;36.20;;;;;;109696;1255;46915;-67
2023/03/19 12:17:32;;;;;;;;;20.00;18.50;24.10;36.50;;;;;;109839;1260;56743;-68
2023/03/19 12:20:18;;;;;;;;;20.50;19.00;24.10;36.40;;;;;;109630;1255;54850;-67
2023/03/19 12:22:47;;;;;;;;;20.00;17.00;24.20;36.30;;;;;;109620;1259;49779;-65
2023/03/19 12:25:29;;;;;;;;;25.00;20.00;24.20;36.50;;;;;;109776;1255;49397;-66
2023/03/19 12:28:12;;;;;;;;;21.00;19.00;24.30;36.40;;;;;;109796;1255;46671;-69